• Join FlightAware (Why Join?)
  • Login
  • US Flag 
12:20AM EDT


 

Airport Tracker/Info


-or-


 

Live Flight TrackerFlight Track Log ✈ VH-JHC ✈ 12-Sep-2013 ✈ YBAF - YBAF

Flight Track Log - Related Links

Times and Time Zones

All times are in EDT time to prevent confusion due to time zone crossing. See the VH-JHC flight status page for this flight to view local times or setup timezone preferences in your user account.

Time Position Orientation Groundspeed Altitude Reporting Facility
EDT Latitude Longitude Course Direction KTS MPH feet Rate Location/Type
09:27PM -27.5539 153.0865 57° Northeast 90 104 1,100  Level Aus ATC (RADAR)
09:27PM -27.5517 153.0903 57° Northeast 89 102 1,100  Level Aus ATC (RADAR)
09:29PM -27.5528 153.0854 256° West  Level Estimated
09:36PM -27.5589 153.0585 256° West  Level Estimated
09:37PM -27.5597 153.0547 256° West  Level Estimated
09:38PM -27.5606 153.0509 256° West  Level Estimated
09:39PM -27.5615 153.0471 256° West  Level Estimated
09:40PM -27.5623 153.0432 256° West  Level Estimated
09:41PM -27.5632 153.0394 256° West  Level Estimated
09:42PM -27.5641 153.0356 256° West  Level Estimated
09:43PM -27.5649 153.0317 256° West  Level Estimated
09:44PM -27.5658 153.0279 256° West  Level Estimated
09:45PM -27.5667 153.0241 256° West  Level Estimated
09:46PM -27.5675 153.0202 256° West  Level Estimated
09:47PM -27.5684 153.0164 256° West  Level Estimated
09:48PM -27.5693 153.0126 256° West  Level Estimated
09:49PM -27.5701 153.0088 256° West  Level Estimated
09:50PM -27.5703 153.0081 256° West  Level Estimated
09:51PM -27.5703 153.0081 299° West  Level Estimated
09:52PM -27.5703 153.0081 299° West  Level Estimated
09:53PM -27.5703 153.0081 299° West  Level Estimated
09:54PM -27.5703 153.0081 299° West  Level Estimated
09:55PM -27.5703 153.0081 299° West  Level Estimated
09:56PM -27.5703 153.0081 299° West  Level Estimated
09:57PM -27.5703 153.0081 299° West  Level Estimated
09:58PM -27.5703 153.0081 299° West  Level Estimated
09:59PM -27.5703 153.0081 299° West  Level Estimated
10:00PM -27.5703 153.0081 299° West  Level Estimated
10:00PM -27.3440 153.0415 299° West 92 106 1,500  Level Aus ATC (RADAR)
10:01PM -27.3156 153.0300 340° North 83 96 1,600  Climbing Aus ATC (RADAR)
10:02PM -27.3021 153.0266 348° North 85 98 1,600  Level Aus ATC (RADAR)
10:02PM -27.2919 153.0251 352° North 88 101 1,600  Level Aus ATC (RADAR)
10:03PM -27.2783 153.0206 343° North 86 99 1,600 60 Level Aus ATC (RADAR)
10:04PM -27.2594 153.0169 350° North 80 92 1,700  Climbing Aus ATC (RADAR)
10:04PM -27.2494 153.0177 North 71 82 1,600 -120 Descending Aus ATC (RADAR)
10:05PM -27.2386 153.0313 48° Northeast 64 74 1,600  Level Aus ATC (RADAR)
10:06PM -27.2340 153.0251 310° West 67 77 1,600  Level Aus ATC (RADAR)
10:08PM -27.2469 153.0179 206° Southwest 62 71 1,600  Level Aus ATC (RADAR)
10:08PM -27.2425 153.0238 50° Northeast 67 77 1,600 120 Level Aus ATC (RADAR)
10:09PM -27.2317 153.0261 11° North 80 92 1,700 60 Climbing Aus ATC (RADAR)
10:10PM -27.2303 153.0066 275° West 78 90 1,700 -120 Level Aus ATC (RADAR)
10:10PM -27.2390 153.0036 197° South 68 78 1,600 -60 Descending Aus ATC (RADAR)
10:12PM -27.2221 153.0047 North 82 94 1,600  Level Aus ATC (RADAR)
10:13PM -27.2070 153.0031 355° North 71 82 1,600 240 Level Aus ATC (RADAR)
10:13PM -27.2044 152.9964 294° West 52 60 1,900 420 Climbing Aus ATC (RADAR)
10:14PM -27.2033 152.9927 289° West 29 33 2,100  Climbing Aus ATC (RADAR)
10:14PM -27.2113 152.9846 222° Southwest 47 54 1,900 -540 Descending Aus ATC (RADAR)
10:15PM -27.2168 152.9768 232° Southwest 66 76 1,500 -960 Descending Aus ATC (RADAR)